createdAt,value
2022-11-05T00:04:34.020Z,5292.00
2022-11-05T00:09:41.224Z,5328.00
2022-11-05T00:14:48.377Z,5328.00
2022-11-05T00:19:55.632Z,5112.00
2022-11-05T00:25:03.012Z,5184.00
2022-11-05T00:30:10.203Z,5148.00
2022-11-05T00:35:17.402Z,5220.00
2022-11-05T00:40:24.723Z,5220.00
2022-11-05T00:45:31.780Z,5184.00
2022-11-05T00:50:38.981Z,5220.00
2022-11-05T00:55:46.165Z,5292.00
2022-11-05T01:00:53.362Z,5364.00
2022-11-05T01:06:00.538Z,5292.00
2022-11-05T01:11:07.770Z,5220.00
2022-11-05T01:16:14.965Z,5364.00
2022-11-05T01:21:22.171Z,-360.00
2022-11-05T01:26:29.556Z,-1440.00
2022-11-05T01:31:36.774Z,-1440.00
2022-11-05T01:36:43.977Z,-1404.00
2022-11-05T01:41:51.274Z,-1440.00
2022-11-05T01:46:58.490Z,-1476.00
2022-11-05T01:52:05.746Z,-1476.00
2022-11-05T01:57:13.092Z,-1440.00
2022-11-05T02:02:20.616Z,-1476.00
2022-11-05T02:07:27.773Z,-1476.00
2022-11-05T02:12:35.060Z,-1476.00
2022-11-05T02:17:42.336Z,-1476.00
2022-11-05T02:22:49.575Z,-1476.00
2022-11-05T02:27:56.933Z,-1476.00
2022-11-05T02:33:04.044Z,-1476.00
2022-11-05T02:38:11.281Z,-1440.00
2022-11-05T02:43:18.636Z,-1476.00
2022-11-05T02:48:25.930Z,-1476.00
2022-11-05T02:53:33.189Z,-1440.00
2022-11-05T02:58:40.553Z,-1404.00
2022-11-05T03:03:47.856Z,-1476.00
2022-11-05T03:08:55.186Z,-1440.00
2022-11-05T03:14:02.415Z,-1476.00
2022-11-05T03:19:09.617Z,-1476.00
2022-11-05T03:24:16.827Z,-1404.00
2022-11-05T03:29:24.055Z,-1476.00
2022-11-05T03:34:31.180Z,-1404.00
2022-11-05T03:39:38.509Z,-1440.00
2022-11-05T03:44:45.882Z,-1404.00
2022-11-05T03:49:53.078Z,-1440.00
2022-11-05T03:55:00.261Z,-1440.00
2022-11-05T04:00:07.589Z,-1440.00
2022-11-05T04:05:14.755Z,-1440.00
2022-11-05T04:10:21.955Z,-1404.00
2022-11-05T04:15:29.486Z,-1404.00
2022-11-05T04:20:36.628Z,-1440.00
2022-11-05T04:25:43.848Z,-1440.00
2022-11-05T04:30:51.336Z,-1440.00
2022-11-05T04:35:58.578Z,-1440.00
2022-11-05T04:41:05.847Z,-1440.00
2022-11-05T04:46:13.132Z,-1440.00
2022-11-05T04:51:20.371Z,-1404.00
2022-11-05T04:56:27.571Z,-1404.00
2022-11-05T05:01:35.115Z,-1440.00
2022-11-05T05:06:45.216Z,-1404.00
2022-11-05T05:11:52.573Z,-1404.00
2022-11-05T05:17:00.107Z,-1404.00
2022-11-05T05:22:07.230Z,-1404.00
2022-11-05T05:27:14.444Z,-1404.00
2022-11-05T05:32:21.798Z,-1404.00
2022-11-05T05:37:28.955Z,-1404.00
2022-11-05T05:42:41.750Z,-1404.00
2022-11-05T05:47:43.414Z,-1404.00
2022-11-05T05:52:50.776Z,-1440.00
2022-11-05T05:57:58.010Z,-1404.00
2022-11-05T06:03:05.465Z,-1476.00
2022-11-05T06:08:12.537Z,-1440.00
2022-11-05T06:13:19.801Z,-1404.00
2022-11-05T06:18:27.104Z,-1260.00
2022-11-05T06:23:34.319Z,-1224.00
2022-11-05T06:28:41.677Z,-1188.00
2022-11-05T06:33:48.975Z,-1224.00
2022-11-05T06:38:56.226Z,-1188.00
2022-11-05T06:44:03.401Z,-1224.00
2022-11-05T06:49:12.340Z,-1224.00
2022-11-05T06:54:19.704Z,-1188.00
2022-11-05T06:59:26.974Z,-1224.00
2022-11-05T07:04:34.167Z,-1224.00
2022-11-05T07:09:41.436Z,-1188.00
2022-11-05T07:14:48.725Z,-1224.00
2022-11-05T07:19:56.009Z,-1260.00
2022-11-05T07:25:03.071Z,-1224.00
2022-11-05T07:30:10.340Z,-1188.00
2022-11-05T07:35:17.529Z,-1224.00
2022-11-05T07:40:24.744Z,-1152.00
2022-11-05T07:45:31.998Z,-1152.00
2022-11-05T07:50:39.269Z,-1224.00
2022-11-05T07:55:46.484Z,-1224.00
2022-11-05T08:00:53.797Z,-1152.00
2022-11-05T08:06:00.932Z,-1188.00
2022-11-05T08:11:08.078Z,-1152.00
2022-11-05T08:16:15.299Z,-1224.00
2022-11-05T08:21:22.522Z,-1188.00
2022-11-05T08:26:29.656Z,-1152.00
2022-11-05T08:31:36.896Z,-1224.00
2022-11-05T08:36:44.201Z,-1152.00
2022-11-05T08:41:51.378Z,-1152.00
2022-11-05T08:46:59.225Z,-1188.00
2022-11-05T08:52:06.452Z,-1152.00
2022-11-05T08:57:13.651Z,-1152.00
2022-11-05T09:02:21.095Z,-1188.00
2022-11-05T09:07:28.134Z,-1188.00
2022-11-05T09:12:36.153Z,-1188.00
2022-11-05T09:17:43.329Z,-1152.00
2022-11-05T09:22:50.666Z,-1152.00
2022-11-05T09:27:57.865Z,-1116.00
2022-11-05T09:33:05.113Z,-1188.00
2022-11-05T09:38:12.395Z,-1152.00
2022-11-05T09:43:19.595Z,-1116.00
2022-11-05T09:48:26.844Z,-1188.00
2022-11-05T09:53:34.071Z,-1152.00
2022-11-05T09:58:41.333Z,-1116.00
2022-11-05T10:03:48.635Z,-1116.00
2022-11-05T10:08:55.941Z,-1116.00
2022-11-05T10:14:03.094Z,21204.00
2022-11-05T10:19:10.341Z,21600.00
2022-11-05T10:24:17.573Z,19980.00
2022-11-05T10:29:24.719Z,19152.00
2022-11-05T10:34:31.902Z,18612.00
2022-11-05T10:39:39.159Z,18144.00
2022-11-05T10:44:46.336Z,18360.00
2022-11-05T10:49:53.581Z,18864.00
2022-11-05T10:55:00.869Z,19512.00
2022-11-05T11:00:08.046Z,16848.00
2022-11-05T11:05:15.269Z,16380.00
2022-11-05T11:10:22.496Z,14580.00
2022-11-05T11:15:29.681Z,15912.00
2022-11-05T11:20:36.859Z,15516.00
2022-11-05T11:25:44.077Z,15012.00
2022-11-05T11:30:51.216Z,16164.00
2022-11-05T11:35:58.443Z,15408.00
2022-11-05T11:41:05.712Z,14004.00
2022-11-05T11:46:15.102Z,15192.00
2022-11-05T11:51:19.993Z,17280.00
2022-11-05T11:56:27.296Z,16452.00
2022-11-05T12:01:34.428Z,16236.00
2022-11-05T12:06:41.605Z,14652.00
2022-11-05T12:11:48.910Z,14580.00
2022-11-05T12:16:56.049Z,16128.00
2022-11-05T12:22:03.422Z,15984.00
2022-11-05T12:27:10.652Z,14508.00
2022-11-05T12:32:17.908Z,14652.00
2022-11-05T12:37:25.050Z,13824.00
2022-11-05T12:42:32.313Z,13860.00
2022-11-05T12:47:39.469Z,13536.00
2022-11-05T12:52:46.701Z,13392.00
2022-11-05T12:57:54.054Z,13284.00
2022-11-05T13:03:01.140Z,10692.00
2022-11-05T13:08:08.389Z,10656.00
2022-11-05T13:13:15.652Z,14148.00
2022-11-05T13:18:22.839Z,12816.00
2022-11-05T13:23:30.292Z,14256.00
2022-11-05T13:28:37.698Z,16164.00
2022-11-05T13:33:44.916Z,16596.00
2022-11-05T13:38:52.317Z,17100.00
2022-11-05T13:43:59.711Z,17100.00
2022-11-05T13:49:06.910Z,15516.00
2022-11-05T13:54:14.065Z,15156.00
2022-11-05T13:59:21.369Z,16380.00
2022-11-05T14:04:28.549Z,15480.00
2022-11-05T14:09:35.916Z,16092.00
2022-11-05T14:14:43.134Z,12924.00
2022-11-05T14:19:51.068Z,10260.00
2022-11-05T14:24:58.255Z,12204.00
2022-11-05T14:30:05.468Z,10944.00
2022-11-05T14:35:13.816Z,13140.00
2022-11-05T14:40:21.056Z,12492.00
2022-11-05T14:45:28.275Z,11196.00
2022-11-05T14:50:35.447Z,11772.00
2022-11-05T14:55:42.649Z,12564.00
2022-11-05T15:00:50.073Z,7668.00
2022-11-05T15:05:57.424Z,6372.00
2022-11-05T15:11:04.676Z,8856.00
2022-11-05T15:16:11.971Z,8532.00
2022-11-05T15:21:19.416Z,7632.00
2022-11-05T15:26:26.800Z,6588.00
2022-11-05T15:31:34.177Z,5652.00
2022-11-05T15:36:41.985Z,3924.00
2022-11-05T15:41:49.127Z,3744.00
2022-11-05T15:46:56.761Z,4104.00
2022-11-05T15:52:04.346Z,9036.00
2022-11-05T15:57:11.965Z,8856.00
2022-11-05T16:02:19.552Z,9288.00
2022-11-05T16:07:26.689Z,9180.00
2022-11-05T16:12:33.942Z,9612.00
2022-11-05T16:17:41.528Z,9612.00
2022-11-05T16:22:48.979Z,9720.00
2022-11-05T16:27:56.218Z,6624.00
2022-11-05T16:33:03.385Z,9288.00
2022-11-05T16:38:10.875Z,8964.00
2022-11-05T16:43:18.940Z,6588.00
2022-11-05T16:48:26.184Z,9576.00
2022-11-05T16:53:33.371Z,9144.00
2022-11-05T16:58:40.750Z,7560.00
2022-11-05T17:03:48.413Z,6804.00
2022-11-05T17:08:55.900Z,7344.00
2022-11-05T17:14:03.204Z,6876.00
2022-11-05T17:19:10.947Z,7128.00
2022-11-05T17:24:18.644Z,6984.00
2022-11-05T17:29:26.196Z,7776.00
2022-11-05T17:34:33.725Z,7632.00
2022-11-05T17:39:41.220Z,7632.00
2022-11-05T17:44:48.729Z,7560.00
2022-11-05T17:49:56.318Z,7272.00
2022-11-05T17:55:03.819Z,6840.00
2022-11-05T18:00:11.431Z,6840.00
2022-11-05T18:05:19.301Z,6768.00
2022-11-05T18:10:26.864Z,6696.00
2022-11-05T18:15:34.584Z,6768.00
2022-11-05T18:20:42.320Z,6696.00
2022-11-05T18:25:52.883Z,6876.00
2022-11-05T18:31:00.600Z,7128.00
2022-11-05T18:36:08.218Z,7092.00
2022-11-05T18:41:15.929Z,7092.00
2022-11-05T18:46:51.219Z,7164.00
2022-11-05T18:51:31.392Z,7164.00
2022-11-05T18:56:38.979Z,6876.00
2022-11-05T19:01:46.845Z,6840.00
2022-11-05T19:06:54.453Z,6840.00
2022-11-05T19:12:01.797Z,6768.00
2022-11-05T19:17:09.339Z,8172.00
2022-11-05T19:22:17.142Z,8244.00
2022-11-05T19:27:24.623Z,8460.00
2022-11-05T19:32:32.188Z,7920.00
2022-11-05T19:37:39.914Z,7920.00
2022-11-05T19:42:47.358Z,7992.00
2022-11-05T19:47:54.640Z,7956.00
2022-11-05T19:53:02.163Z,7164.00
2022-11-05T19:58:10.250Z,6660.00
2022-11-05T20:03:17.144Z,6624.00
2022-11-05T20:08:24.677Z,6696.00
2022-11-05T20:13:32.075Z,6876.00
2022-11-05T20:18:39.784Z,6768.00
2022-11-05T20:23:47.554Z,6768.00
2022-11-05T20:28:55.114Z,7056.00
2022-11-05T20:34:02.747Z,6984.00
2022-11-05T20:39:10.475Z,7020.00
2022-11-05T20:44:17.962Z,7056.00
2022-11-05T20:49:26.118Z,6948.00
2022-11-05T20:54:33.101Z,6876.00
2022-11-05T20:59:40.599Z,7092.00
2022-11-05T21:04:48.215Z,7056.00
2022-11-05T21:09:55.860Z,6984.00
2022-11-05T21:15:03.437Z,6696.00
2022-11-05T21:20:11.055Z,6804.00
2022-11-05T21:25:18.524Z,7164.00
2022-11-05T21:30:26.299Z,6696.00
2022-11-05T21:35:33.583Z,6912.00
2022-11-05T21:40:41.042Z,7164.00
2022-11-05T21:45:48.381Z,7200.00
2022-11-05T21:50:55.674Z,7200.00
2022-11-05T21:56:02.998Z,7128.00
2022-11-05T22:01:10.257Z,7056.00
2022-11-05T22:06:17.497Z,7056.00
2022-11-05T22:11:24.810Z,6552.00
2022-11-05T22:16:32.268Z,6912.00
2022-11-05T22:21:39.544Z,6696.00
2022-11-05T22:26:46.835Z,6696.00
2022-11-05T22:31:54.036Z,6768.00
2022-11-05T22:37:01.217Z,7092.00
2022-11-05T22:42:09.088Z,7056.00
2022-11-05T22:47:15.749Z,6840.00
2022-11-05T22:52:22.951Z,6840.00
2022-11-05T22:57:30.256Z,6768.00
2022-11-05T23:02:37.677Z,6804.00
2022-11-05T23:07:44.717Z,6804.00
2022-11-05T23:12:51.951Z,7020.00
2022-11-05T23:17:59.126Z,7020.00
2022-11-05T23:23:06.347Z,6696.00
2022-11-05T23:28:13.956Z,6912.00
2022-11-05T23:33:20.839Z,6696.00
2022-11-05T23:38:28.041Z,6804.00
2022-11-05T23:43:35.301Z,6768.00
2022-11-05T23:48:42.428Z,6732.00
2022-11-05T23:53:49.628Z,6624.00
2022-11-05T23:58:56.781Z,6984.00
